Terminal Aerodrome Forecast
Issued by NWS

Home | Current Version | Previous Version | Graphics & Text | Print | Product List | Glossary On
Versions: 1 2 3 4 5 6 7 8 9 10 11 12 13 14 15 16 17
000
FTUS43 KICT 250936 AAA
TAFSLN
TAF AMD
KSLN 250936Z 2510/2606 VRB04KT 5SM BR BKN120
      TEMPO 2511/2515 2SM BR SCT003
     FM251600 03014G20KT P6SM OVC100
     FM252000 03022G30KT P6SM VCSH BKN035 OVC080=

USA.gov is the U.S. government's official web portal to all federal, state and local government web resources and services.